Time;durP1;ratioP1;P1;durP2;ratioP2;P2;SDS_P1;SDS_P2;PMS_P1;PMS_P2;Temp;Humidity;BMP_temperature;BMP_pressure;BME280_temperature;BME280_humidity;BME280_pressure;Samples;Min_cycle;Max_cycle;Signal;HPM_P1;HPM_P2
2022/03/26 00:00:50;;;;;;;4.80;4.33;;;7.60;99.90;;;;;;4989786;28;21337;-86
2022/03/26 00:03:16;;;;;;;3.73;2.30;;;7.60;99.90;;;;;;4990248;28;20194;-85
2022/03/26 00:05:43;;;;;;;2.70;2.60;;;7.60;99.90;;;;;;4990566;28;20504;-86
2022/03/26 00:08:09;;;;;;;3.17;2.97;;;7.60;99.90;;;;;;4991165;28;20432;-85
2022/03/26 00:10:36;;;;;;;6.33;2.17;;;7.60;99.90;;;;;;4991518;28;20459;-85
2022/03/26 00:13:03;;;;;;;14.33;5.63;;;7.50;99.90;;;;;;4990727;28;20205;-85
2022/03/26 00:15:28;;;;;;;1.83;1.73;;;7.50;99.90;;;;;;4988822;28;20452;-85
2022/03/26 00:17:55;;;;;;;2.10;1.97;;;7.60;99.90;;;;;;4987937;28;20534;-85
2022/03/26 00:20:21;;;;;;;11.73;3.27;;;7.70;99.90;;;;;;4985158;28;20227;-85
2022/03/26 00:22:47;;;;;;;7.77;2.30;;;7.50;99.90;;;;;;4987667;28;20464;-85
2022/03/26 00:25:15;;;;;;;2.87;2.67;;;7.50;99.90;;;;;;4986673;28;20677;-86
2022/03/26 00:27:41;;;;;;;7.97;3.60;;;7.60;99.90;;;;;;4990760;28;20444;-85
2022/03/26 00:30:07;;;;;;;7.97;3.93;;;7.50;99.90;;;;;;5011375;28;20449;-85
2022/03/26 00:32:33;;;;;;;3.30;1.03;;;7.50;99.90;;;;;;4994367;28;20451;-84
2022/03/26 00:34:59;;;;;;;8.00;3.90;;;7.60;99.90;;;;;;4987251;28;20452;-85
2022/03/26 00:37:25;;;;;;;4.20;3.80;;;7.40;99.90;;;;;;4987523;28;20448;-85
2022/03/26 00:39:51;;;;;;;3.10;2.83;;;7.40;99.90;;;;;;4987225;28;20443;-85
2022/03/26 00:42:16;;;;;;;3.23;3.00;;;7.40;99.90;;;;;;4991020;28;20271;-85
2022/03/26 00:44:42;;;;;;;3.60;2.23;;;7.50;99.90;;;;;;4981448;28;20184;-86
2022/03/26 00:47:08;;;;;;;4.57;4.17;;;7.40;99.90;;;;;;4990111;28;20304;-85
2022/03/26 00:49:35;;;;;;;5.97;3.00;;;7.20;99.90;;;;;;4985920;28;20185;-85
2022/03/26 00:52:01;;;;;;;7.90;3.67;;;7.20;99.90;;;;;;4984212;28;20590;-86
2022/03/26 00:54:27;;;;;;;3.03;2.83;;;7.20;99.90;;;;;;4990848;28;20514;-85
2022/03/26 00:56:52;;;;;;;9.57;4.33;;;7.20;99.90;;;;;;4985109;28;20448;-85
2022/03/26 00:59:19;;;;;;;11.07;2.93;;;7.20;99.90;;;;;;4984636;28;20200;-85
2022/03/26 01:01:45;;;;;;;5.63;5.17;;;7.20;99.90;;;;;;4999375;28;20191;-85
2022/03/26 01:04:12;;;;;;;10.13;4.30;;;7.20;99.90;;;;;;4986327;28;20472;-86
2022/03/26 01:06:37;;;;;;;8.20;5.70;;;7.20;99.90;;;;;;4987759;28;20843;-85
2022/03/26 01:09:03;;;;;;;4.83;4.43;;;7.20;99.90;;;;;;4989619;28;20523;-85
2022/03/26 01:11:28;;;;;;;16.57;3.60;;;7.00;99.90;;;;;;4984885;28;20182;-85
2022/03/26 01:13:56;;;;;;;1.30;1.20;;;7.10;99.90;;;;;;5006077;28;20180;-85
2022/03/26 01:16:23;;;;;;;1.87;1.13;;;7.00;99.90;;;;;;4994810;28;20203;-85
2022/03/26 01:18:49;;;;;;;2.80;2.60;;;7.00;99.90;;;;;;4982731;28;20439;-85
2022/03/26 01:21:15;;;;;;;3.67;3.47;;;6.90;99.90;;;;;;4980165;28;20582;-85
2022/03/26 01:23:40;;;;;;;1.97;1.67;;;7.00;99.90;;;;;;4986227;28;20547;-84
2022/03/26 01:26:06;;;;;;;3.50;3.17;;;7.00;99.90;;;;;;4985673;28;20503;-85
2022/03/26 01:28:32;;;;;;;3.90;3.60;;;7.00;99.90;;;;;;4989605;28;20194;-85
2022/03/26 01:31:00;;;;;;;7.77;3.47;;;7.00;99.90;;;;;;4992387;28;20194;-85
2022/03/26 01:33:26;;;;;;;2.30;2.10;;;6.90;99.90;;;;;;4985191;28;21040;-85
2022/03/26 01:35:51;;;;;;;1.77;1.67;;;6.80;99.90;;;;;;4987869;28;20549;-85
2022/03/26 01:38:17;;;;;;;10.33;2.40;;;6.70;99.90;;;;;;4987998;28;20195;-84
2022/03/26 01:40:42;;;;;;;3.37;3.03;;;6.80;99.90;;;;;;4984689;28;20196;-85
2022/03/26 01:43:08;;;;;;;3.70;1.90;;;6.80;99.90;;;;;;4994437;28;20637;-85
2022/03/26 01:45:34;;;;;;;2.27;2.07;;;6.80;99.90;;;;;;4999877;28;20271;-85
2022/03/26 01:47:59;;;;;;;7.20;2.77;;;6.70;99.90;;;;;;4988173;28;20440;-85
2022/03/26 01:50:29;;;;;;;1.27;1.17;;;6.70;99.90;;;;;;4991134;28;20193;-85
2022/03/26 01:52:56;;;;;;;4.20;3.90;;;6.70;99.90;;;;;;4987434;28;20185;-85
2022/03/26 01:55:23;;;;;;;2.57;2.37;;;6.90;99.90;;;;;;4981593;28;20440;-85
2022/03/26 01:57:49;;;;;;;3.13;2.93;;;6.90;99.90;;;;;;4990901;28;20486;-85
2022/03/26 02:00:15;;;;;;;2.97;2.77;;;6.70;99.90;;;;;;4982495;28;20440;-85
2022/03/26 02:02:43;;;;;;;6.03;2.23;;;6.60;99.90;;;;;;4986191;28;20515;-86
2022/03/26 02:05:09;;;;;;;1.93;1.67;;;6.80;99.90;;;;;;4982742;28;20510;-85
2022/03/26 02:07:37;;;;;;;6.60;6.20;;;6.70;99.90;;;;;;4992540;28;20494;-85
2022/03/26 02:10:03;;;;;;;3.23;2.87;;;6.60;99.90;;;;;;4984333;28;20590;-84
2022/03/26 02:12:29;;;;;;;4.80;4.40;;;6.70;99.90;;;;;;4990561;28;21006;-86
2022/03/26 02:14:56;;;;;;;3.53;2.63;;;6.70;99.90;;;;;;4985721;28;20439;-85
2022/03/26 02:17:23;;;;;;;3.93;3.63;;;6.60;99.90;;;;;;4988868;28;20199;-85
2022/03/26 02:19:53;;;;;;;4.60;4.20;;;6.50;99.90;;;;;;4987383;28;20991;-85
2022/03/26 02:22:20;;;;;;;2.10;2.00;;;6.60;99.90;;;;;;4992823;28;20483;-85
2022/03/26 02:24:46;;;;;;;3.47;3.17;;;6.50;99.90;;;;;;4990427;28;20440;-86
2022/03/26 02:27:12;;;;;;;3.07;2.87;;;6.60;99.90;;;;;;4986284;28;20511;-85
2022/03/26 02:29:38;;;;;;;2.83;2.63;;;6.70;99.90;;;;;;4985352;28;21022;-86
2022/03/26 02:32:04;;;;;;;1.50;1.00;;;6.70;99.90;;;;;;4994252;28;20189;-85
2022/03/26 02:34:29;;;;;;;6.40;3.67;;;6.70;99.90;;;;;;4984314;28;20272;-86
2022/03/26 02:36:56;;;;;;;1.77;1.67;;;6.70;99.90;;;;;;4992091;28;20531;-84
2022/03/26 02:39:22;;;;;;;3.00;2.80;;;6.70;99.90;;;;;;4987539;28;20251;-84
2022/03/26 02:41:47;;;;;;;2.60;1.97;;;6.50;99.90;;;;;;4990049;28;20443;-85
2022/03/26 02:44:13;;;;;;;3.47;3.23;;;6.60;99.90;;;;;;4985589;28;20240;-85
2022/03/26 02:46:38;;;;;;;4.00;2.90;;;6.60;99.90;;;;;;4988278;28;20763;-85
2022/03/26 02:49:04;;;;;;;3.67;3.47;;;6.50;99.90;;;;;;4987057;28;20177;-85
2022/03/26 02:51:30;;;;;;;4.17;3.77;;;6.50;99.90;;;;;;4989777;28;20566;-85
2022/03/26 02:53:56;;;;;;;3.00;2.70;;;6.60;99.90;;;;;;5000701;28;20182;-85
2022/03/26 02:56:21;;;;;;;5.03;4.60;;;6.60;99.90;;;;;;5000304;28;20358;-86
2022/03/26 02:58:48;;;;;;;2.90;2.60;;;6.60;99.90;;;;;;4987469;28;20181;-85
2022/03/26 03:01:13;;;;;;;6.40;3.23;;;6.50;99.90;;;;;;4995786;28;20278;-85
2022/03/26 03:03:39;;;;;;;9.20;2.57;;;6.50;99.90;;;;;;4992190;28;20464;-84
2022/03/26 03:06:05;;;;;;;2.20;2.03;;;6.50;99.90;;;;;;4990529;28;20283;-85
2022/03/26 03:08:30;;;;;;;5.30;4.53;;;6.50;99.90;;;;;;4988040;28;20479;-85
2022/03/26 03:10:56;;;;;;;3.53;1.93;;;6.40;99.90;;;;;;4988809;28;20196;-85
2022/03/26 03:13:22;;;;;;;3.63;3.33;;;6.40;99.90;;;;;;4991953;28;20197;-85
2022/03/26 03:15:48;;;;;;;3.63;3.33;;;6.30;99.90;;;;;;4988060;28;20668;-86
2022/03/26 03:18:14;;;;;;;3.83;3.50;;;6.30;99.90;;;;;;4996041;28;20204;-85
2022/03/26 03:20:39;;;;;;;1.13;1.03;;;6.40;99.90;;;;;;4988253;28;20435;-85
2022/03/26 03:23:05;;;;;;;2.20;2.10;;;6.20;99.90;;;;;;4988086;28;20787;-86
2022/03/26 03:25:31;;;;;;;1.43;1.33;;;6.30;99.90;;;;;;4988922;28;20251;-85
2022/03/26 03:27:57;;;;;;;1.83;1.73;;;6.50;99.90;;;;;;4984452;28;20193;-85
2022/03/26 03:30:23;;;;;;;2.70;2.50;;;6.40;99.90;;;;;;4989945;28;20196;-85
2022/03/26 03:32:49;;;;;;;2.97;2.77;;;6.30;99.90;;;;;;4988085;28;20475;-85
2022/03/26 03:35:15;;;;;;;1.63;1.53;;;6.30;99.90;;;;;;4990654;28;20444;-85
2022/03/26 03:37:40;;;;;;;5.40;2.87;;;6.30;99.90;;;;;;4992715;28;20185;-85
2022/03/26 03:40:07;;;;;;;1.53;1.43;;;6.40;99.90;;;;;;4988180;28;20275;-85
2022/03/26 03:42:34;;;;;;;4.90;4.60;;;6.30;99.90;;;;;;4991020;28;20665;-86
2022/03/26 03:45:00;;;;;;;2.80;2.60;;;6.40;99.90;;;;;;4989822;28;20440;-85
2022/03/26 03:47:25;;;;;;;1.70;1.60;;;6.20;99.90;;;;;;4995875;28;20534;-85
2022/03/26 03:49:51;;;;;;;5.90;5.47;;;6.30;99.90;;;;;;4995389;28;21022;-85
2022/03/26 03:52:17;;;;;;;1.40;1.23;;;6.10;99.90;;;;;;4988533;28;20200;-85
2022/03/26 03:54:43;;;;;;;11.67;2.03;;;6.10;99.90;;;;;;4995634;28;20443;-85
2022/03/26 03:57:08;;;;;;;1.47;1.23;;;6.10;99.90;;;;;;4993356;28;20191;-85
2022/03/26 03:59:34;;;;;;;3.47;3.23;;;6.10;99.90;;;;;;4992779;28;20192;-86
2022/03/26 04:01:59;;;;;;;3.23;3.03;;;6.10;99.90;;;;;;4995162;28;20197;-85
2022/03/26 04:04:25;;;;;;;3.67;2.47;;;6.00;99.90;;;;;;4991970;28;20247;-85
2022/03/26 04:06:51;;;;;;;11.43;3.23;;;6.10;99.90;;;;;;4990411;28;20225;-85
2022/03/26 04:09:16;;;;;;;1.00;0.80;;;6.10;99.90;;;;;;4986292;28;20208;-85
2022/03/26 04:11:42;;;;;;;0.90;0.87;;;6.10;99.90;;;;;;4993581;28;20311;-84
2022/03/26 04:14:08;;;;;;;3.27;3.07;;;6.00;99.90;;;;;;4991639;28;20267;-85
2022/03/26 04:16:33;;;;;;;1.30;1.23;;;6.00;99.90;;;;;;4994913;28;20227;-86
2022/03/26 04:18:59;;;;;;;1.53;1.47;;;6.00;99.90;;;;;;4988399;28;20235;-86
2022/03/26 04:21:25;;;;;;;0.50;0.50;;;6.10;99.90;;;;;;4988780;28;20197;-85
2022/03/26 04:23:51;;;;;;;8.67;5.73;;;5.90;99.90;;;;;;4997497;28;20204;-86
2022/03/26 04:26:17;;;;;;;3.07;2.13;;;5.80;99.90;;;;;;4988736;28;20487;-87
2022/03/26 04:28:42;;;;;;;3.97;3.27;;;5.90;99.90;;;;;;4984430;28;20642;-85
2022/03/26 04:31:09;;;;;;;5.97;2.90;;;5.90;99.90;;;;;;4985836;28;20471;-85
2022/03/26 04:33:35;;;;;;;4.70;2.87;;;6.00;99.90;;;;;;4984170;28;20244;-85
2022/03/26 04:36:00;;;;;;;8.53;3.60;;;5.90;99.90;;;;;;4997124;28;20869;-86
2022/03/26 04:38:26;;;;;;;4.73;1.73;;;5.80;99.90;;;;;;4990798;28;20488;-85
2022/03/26 04:40:52;;;;;;;4.33;1.90;;;5.80;99.90;;;;;;4984672;28;20197;-85
2022/03/26 04:43:20;;;;;;;3.67;3.47;;;5.80;99.90;;;;;;4986105;28;20193;-85
2022/03/26 04:45:45;;;;;;;4.20;3.90;;;5.80;99.90;;;;;;5004786;28;20220;-85
2022/03/26 04:48:13;;;;;;;10.03;2.60;;;5.90;99.90;;;;;;4988928;28;20932;-85
2022/03/26 04:50:39;;;;;;;3.83;2.37;;;5.80;99.90;;;;;;4984663;28;20193;-86
2022/03/26 04:53:05;;;;;;;2.80;2.60;;;5.90;99.90;;;;;;4996816;28;20452;-85
2022/03/26 04:55:30;;;;;;;3.43;2.70;;;6.00;99.90;;;;;;4989364;28;20952;-85
2022/03/26 04:57:56;;;;;;;8.47;2.77;;;5.90;99.90;;;;;;4990975;28;20965;-85
2022/03/26 05:00:22;;;;;;;5.00;4.70;;;5.90;99.90;;;;;;4987461;28;20184;-85
2022/03/26 05:02:48;;;;;;;5.73;2.57;;;6.00;99.90;;;;;;4990893;28;20235;-84
2022/03/26 05:05:14;;;;;;;3.37;2.10;;;6.00;99.90;;;;;;5012542;28;21002;-85
2022/03/26 05:07:46;;;;;;;1.73;1.40;;;6.10;99.90;;;;;;4988824;28;20708;-85
2022/03/26 05:10:14;;;;;;;4.00;3.07;;;6.10;99.90;;;;;;4994703;28;20444;-85
2022/03/26 05:12:41;;;;;;;2.20;1.70;;;6.00;99.90;;;;;;4992598;28;20480;-84
2022/03/26 05:15:08;;;;;;;1.27;1.17;;;6.00;99.90;;;;;;4990826;28;20455;-86
2022/03/26 05:17:34;;;;;;;2.20;2.00;;;6.10;99.90;;;;;;4988976;28;20527;-85
2022/03/26 05:20:00;;;;;;;2.37;2.17;;;6.10;99.90;;;;;;4996645;28;20503;-85
2022/03/26 05:22:26;;;;;;;1.53;1.43;;;6.10;99.90;;;;;;4988365;28;20455;-85
2022/03/26 05:24:53;;;;;;;4.13;2.43;;;6.20;99.90;;;;;;4989155;28;20217;-85
2022/03/26 05:27:18;;;;;;;5.47;4.13;;;6.10;99.90;;;;;;4989927;28;20213;-86
2022/03/26 05:29:46;;;;;;;1.40;1.30;;;6.20;99.90;;;;;;4993336;28;20503;-86
2022/03/26 05:32:12;;;;;;;2.03;1.87;;;6.20;99.90;;;;;;5001231;28;20188;-84
2022/03/26 05:34:38;;;;;;;5.67;5.27;;;6.20;99.90;;;;;;5002625;28;20527;-86
2022/03/26 05:37:04;;;;;;;4.20;3.23;;;6.30;99.90;;;;;;4994020;28;20883;-86
2022/03/26 05:39:30;;;;;;;1.97;1.73;;;6.30;99.90;;;;;;4980364;28;20258;-87
2022/03/26 05:41:56;;;;;;;6.03;2.70;;;6.40;99.90;;;;;;4993518;28;21950;-85
2022/03/26 05:44:22;;;;;;;2.40;2.10;;;6.40;99.90;;;;;;4981941;28;20274;-85
2022/03/26 05:46:47;;;;;;;5.97;5.60;;;6.50;99.90;;;;;;4997731;28;20242;-86
2022/03/26 05:49:13;;;;;;;2.40;2.13;;;6.60;99.90;;;;;;4981152;28;20532;-86
2022/03/26 05:51:38;;;;;;;9.67;5.03;;;6.60;99.90;;;;;;4988867;28;20193;-86
2022/03/26 05:54:04;;;;;;;3.80;3.60;;;6.60;99.90;;;;;;4977741;28;20716;-85
2022/03/26 05:56:30;;;;;;;2.20;1.43;;;6.70;99.90;;;;;;4979063;28;20189;-86
2022/03/26 05:58:55;;;;;;;8.03;7.63;;;6.80;99.90;;;;;;4981364;28;20181;-86
2022/03/26 06:01:22;;;;;;;1.77;1.60;;;6.80;99.90;;;;;;5000565;28;20451;-86
2022/03/26 06:03:47;;;;;;;1.20;1.10;;;7.00;99.90;;;;;;4978905;28;20271;-85
2022/03/26 06:06:13;;;;;;;3.43;2.43;;;7.00;99.90;;;;;;4981890;28;21067;-84
2022/03/26 06:08:38;;;;;;;3.13;2.90;;;7.10;99.90;;;;;;4985194;28;20196;-84
2022/03/26 06:11:04;;;;;;;1.20;1.10;;;7.20;99.90;;;;;;4986487;28;20997;-85
2022/03/26 06:13:30;;;;;;;3.40;3.20;;;7.20;99.90;;;;;;4995517;28;20273;-84
2022/03/26 06:15:55;;;;;;;1.53;1.43;;;7.30;99.90;;;;;;4999607;28;20196;-84
2022/03/26 06:18:21;;;;;;;2.13;2.00;;;7.20;99.90;;;;;;4992020;28;20199;-85
2022/03/26 06:20:47;;;;;;;2.50;2.30;;;7.30;99.90;;;;;;4999483;28;20279;-85
2022/03/26 06:23:12;;;;;;;1.27;1.17;;;7.30;99.90;;;;;;5001082;28;21010;-85
2022/03/26 06:25:38;;;;;;;2.60;2.07;;;7.40;99.90;;;;;;4992620;28;20232;-85
2022/03/26 06:28:04;;;;;;;1.53;0.90;;;7.40;99.90;;;;;;4989565;28;20185;-83
2022/03/26 06:30:30;;;;;;;0.80;0.70;;;7.40;99.90;;;;;;4976487;28;20558;-84
2022/03/26 06:32:56;;;;;;;1.57;1.47;;;7.50;99.90;;;;;;4987348;28;20189;-84
2022/03/26 06:35:22;;;;;;;2.73;2.53;;;7.40;99.90;;;;;;4991675;28;20447;-84
2022/03/26 06:37:47;;;;;;;1.10;1.00;;;7.60;99.90;;;;;;4988730;28;20428;-85
2022/03/26 06:40:13;;;;;;;3.53;3.23;;;7.50;99.90;;;;;;4990500;28;20184;-86
2022/03/26 06:42:39;;;;;;;4.73;4.40;;;7.70;99.90;;;;;;4989193;28;20224;-85
2022/03/26 06:45:04;;;;;;;0.90;0.70;;;7.60;99.90;;;;;;4975793;28;20599;-85
2022/03/26 06:47:31;;;;;;;1.57;0.90;;;7.60;99.90;;;;;;4998224;28;20200;-85
2022/03/26 06:49:57;;;;;;;2.40;2.30;;;7.70;99.90;;;;;;4989784;28;20649;-86
2022/03/26 06:52:23;;;;;;;0.90;0.80;;;7.80;99.90;;;;;;5007741;28;20457;-85
2022/03/26 06:54:50;;;;;;;4.00;1.90;;;7.90;99.90;;;;;;4996385;28;20645;-85
2022/03/26 06:57:15;;;;;;;1.93;1.80;;;7.90;99.90;;;;;;4990411;28;20436;-85
2022/03/26 06:59:41;;;;;;;0.30;0.30;;;8.00;99.90;;;;;;4987795;28;20502;-84
2022/03/26 07:02:07;;;;;;;0.30;0.30;;;7.90;99.90;;;;;;4983695;28;20189;-85
2022/03/26 07:04:32;;;;;;;0.20;0.20;;;7.90;99.90;;;;;;4988028;28;20311;-84
2022/03/26 07:06:58;;;;;;;1.13;1.03;;;7.90;99.90;;;;;;4993532;28;20223;-85
2022/03/26 07:09:23;;;;;;;1.40;0.87;;;8.00;99.90;;;;;;4983765;28;20185;-85
2022/03/26 07:11:52;;;;;;;0.90;0.80;;;8.10;99.90;;;;;;4992869;28;20641;-84
2022/03/26 07:14:18;;;;;;;1.13;0.90;;;8.20;99.90;;;;;;4987139;28;20178;-84
2022/03/26 07:16:44;;;;;;;3.13;2.93;;;8.10;99.90;;;;;;4988086;28;20463;-85
2022/03/26 07:19:10;;;;;;;2.10;1.93;;;8.20;99.90;;;;;;4988045;28;20280;-85
2022/03/26 07:21:36;;;;;;;0.30;0.30;;;8.20;99.90;;;;;;4992446;28;20185;-85
2022/03/26 07:24:02;;;;;;;0.23;0.23;;;8.30;99.90;;;;;;4982247;28;20452;-84
2022/03/26 07:26:28;;;;;;;0.97;0.97;;;8.30;99.90;;;;;;5012541;28;20515;-85
2022/03/26 07:28:55;;;;;;;0.63;0.63;;;8.40;99.90;;;;;;4978184;28;20229;-86
2022/03/26 07:31:21;;;;;;;0.20;0.20;;;8.50;99.90;;;;;;4997469;28;20192;-84
2022/03/26 07:33:46;;;;;;;0.30;0.30;;;8.50;99.90;;;;;;4993125;28;20456;-85
2022/03/26 07:36:12;;;;;;;1.63;1.53;;;8.50;99.90;;;;;;4998210;28;20645;-84
2022/03/26 07:38:37;;;;;;;2.20;1.30;;;8.50;99.90;;;;;;4987338;28;20216;-85
2022/03/26 07:41:03;;;;;;;0.90;0.83;;;8.70;99.90;;;;;;4989222;28;20216;-85
2022/03/26 07:43:29;;;;;;;1.30;1.20;;;8.70;99.90;;;;;;4996976;28;20177;-85
2022/03/26 07:45:54;;;;;;;0.80;0.70;;;8.70;99.90;;;;;;4989487;28;20201;-85
2022/03/26 07:48:20;;;;;;;2.37;2.13;;;8.80;99.90;;;;;;4983807;28;20191;-86
2022/03/26 07:50:46;;;;;;;2.30;2.10;;;8.90;99.90;;;;;;4990088;28;20193;-86
2022/03/26 07:53:12;;;;;;;0.50;0.50;;;9.00;99.90;;;;;;4992604;28;20711;-86
2022/03/26 07:55:38;;;;;;;0.93;0.83;;;9.10;99.90;;;;;;4987192;28;20188;-85
2022/03/26 07:58:03;;;;;;;0.80;0.60;;;9.10;99.90;;;;;;4986850;28;20444;-85
2022/03/26 08:00:29;;;;;;;1.57;1.47;;;9.00;99.90;;;;;;4988398;28;20188;-86
2022/03/26 08:02:55;;;;;;;2.07;1.90;;;9.10;99.90;;;;;;4991113;28;20173;-85
2022/03/26 08:05:21;;;;;;;0.83;0.70;;;9.10;99.90;;;;;;4991349;28;20236;-86
2022/03/26 08:07:46;;;;;;;2.17;2.00;;;9.20;99.90;;;;;;5005736;28;20301;-86
2022/03/26 08:10:12;;;;;;;1.10;0.90;;;9.40;99.90;;;;;;4989330;28;20466;-87
2022/03/26 08:12:37;;;;;;;1.30;1.20;;;9.60;99.90;;;;;;5007814;28;20653;-85
2022/03/26 08:15:03;;;;;;;0.97;0.97;;;9.60;99.90;;;;;;4981155;28;20300;-84
2022/03/26 08:17:29;;;;;;;0.30;0.30;;;9.70;99.90;;;;;;5005529;28;20660;-86
2022/03/26 08:19:55;;;;;;;0.40;0.37;;;9.60;99.90;;;;;;4985624;28;20436;-86
2022/03/26 08:22:20;;;;;;;0.20;0.20;;;9.60;99.90;;;;;;4992108;28;20200;-84
2022/03/26 08:24:46;;;;;;;0.73;0.57;;;9.70;99.90;;;;;;4999854;28;20189;-86
2022/03/26 08:27:11;;;;;;;0.80;0.60;;;9.80;99.90;;;;;;4988687;28;21159;-83
2022/03/26 08:29:37;;;;;;;1.53;1.20;;;9.80;99.90;;;;;;4987190;28;20304;-86
2022/03/26 08:32:05;;;;;;;0.67;0.60;;;9.90;99.90;;;;;;4994127;28;20185;-86
2022/03/26 08:34:31;;;;;;;2.00;1.90;;;10.10;99.90;;;;;;4998733;28;20590;-85
2022/03/26 08:36:57;;;;;;;4.03;3.33;;;10.20;99.90;;;;;;4997017;28;20450;-86
2022/03/26 08:39:23;;;;;;;0.90;0.80;;;10.30;99.90;;;;;;4992832;28;20439;-86
2022/03/26 08:41:48;;;;;;;1.00;0.90;;;10.30;99.90;;;;;;4985446;28;20202;-86
2022/03/26 08:44:14;;;;;;;1.80;0.87;;;10.40;99.90;;;;;;4987519;28;20181;-86
2022/03/26 08:46:39;;;;;;;0.73;0.60;;;10.50;99.90;;;;;;4990575;28;20747;-86
2022/03/26 08:49:05;;;;;;;0.10;0.10;;;10.50;99.90;;;;;;4983149;28;20194;-86
2022/03/26 08:51:30;;;;;;;0.20;0.20;;;10.60;99.90;;;;;;4987146;28;20202;-86
2022/03/26 08:53:56;;;;;;;0.40;0.40;;;10.60;99.90;;;;;;4994185;28;20184;-87
2022/03/26 08:56:22;;;;;;;0.20;0.20;;;10.60;99.90;;;;;;4997253;28;20202;-87
2022/03/26 08:58:48;;;;;;;0.10;0.10;;;10.70;99.90;;;;;;5001414;28;20725;-86
2022/03/26 09:01:14;;;;;;;0.20;0.20;;;10.70;99.90;;;;;;4987191;28;20193;-86
2022/03/26 09:03:40;;;;;;;0.20;0.20;;;10.60;99.90;;;;;;4982776;28;20459;-86
2022/03/26 09:06:07;;;;;;;0.10;0.10;;;10.70;99.90;;;;;;4986017;28;20307;-85
2022/03/26 09:08:36;;;;;;;0.20;0.20;;;10.70;99.90;;;;;;4982941;28;20445;-86
2022/03/26 09:11:04;;;;;;;0.10;0.10;;;10.70;99.90;;;;;;4993355;28;20979;-86
2022/03/26 09:13:30;;;;;;;0.10;0.10;;;10.60;99.90;;;;;;4976665;28;20440;-85
2022/03/26 09:15:56;;;;;;;0.10;0.10;;;10.50;99.90;;;;;;4996178;28;20499;-85
2022/03/26 09:18:22;;;;;;;0.20;0.20;;;10.60;99.90;;;;;;4993531;28;20448;-85
2022/03/26 09:20:48;;;;;;;0.10;0.10;;;10.60;99.90;;;;;;4988892;28;20549;-86
2022/03/26 09:23:15;;;;;;;0.10;0.10;;;10.70;99.90;;;;;;4997626;28;20913;-86
2022/03/26 09:25:42;;;;;;;0.20;0.20;;;10.70;99.90;;;;;;4985522;28;20481;-86
2022/03/26 09:28:08;;;;;;;0.13;0.13;;;10.70;99.90;;;;;;4982204;28;20456;-86
2022/03/26 09:30:33;;;;;;;0.20;0.20;;;10.80;99.90;;;;;;4981831;28;20436;-86
2022/03/26 09:32:59;;;;;;;0.20;0.20;;;10.80;99.90;;;;;;4986285;28;20964;-87
2022/03/26 09:35:26;;;;;;;0.20;0.20;;;10.70;99.90;;;;;;4992216;28;20181;-87
2022/03/26 09:37:51;;;;;;;0.20;0.20;;;10.80;99.90;;;;;;5006430;28;20549;-85
2022/03/26 09:40:20;;;;;;;0.20;0.20;;;10.90;99.90;;;;;;4986603;28;20588;-85
2022/03/26 09:42:46;;;;;;;0.10;0.10;;;11.20;99.90;;;;;;4974419;28;20198;-87
2022/03/26 09:45:11;;;;;;;0.10;0.10;;;11.30;99.90;;;;;;4994688;28;20445;-86
2022/03/26 09:47:37;;;;;;;0.10;0.10;;;11.60;99.90;;;;;;4989432;28;20724;-86
2022/03/26 09:50:06;;;;;;;0.10;0.10;;;11.50;99.90;;;;;;5000062;28;20180;-87
2022/03/26 09:52:34;;;;;;;0.10;0.10;;;11.60;99.90;;;;;;5008657;28;20492;-87
2022/03/26 09:54:59;;;;;;;0.10;0.10;;;12.10;99.90;;;;;;4984353;28;20440;-86
2022/03/26 09:57:25;;;;;;;0.10;0.10;;;12.70;99.90;;;;;;4988248;28;20449;-87
2022/03/26 09:59:51;;;;;;;0.10;0.10;;;12.80;99.90;;;;;;4974966;28;20725;-86
2022/03/26 10:02:17;;;;;;;0.10;0.10;;;13.10;99.90;;;;;;5000854;28;20212;-87
2022/03/26 10:04:44;;;;;;;0.10;0.10;;;12.80;99.90;;;;;;4985877;28;20228;-86
2022/03/26 10:07:11;;;;;;;0.10;0.10;;;12.60;99.90;;;;;;4986546;28;21008;-86
2022/03/26 10:09:42;;;;;;;0.10;0.10;;;12.90;99.90;;;;;;4987333;28;20927;-86
2022/03/26 10:12:08;;;;;;;0.10;0.10;;;12.90;99.90;;;;;;5006159;28;20511;-86
2022/03/26 10:14:41;;;;;;;0.10;0.10;;;13.00;99.90;;;;;;4998088;28;20591;-86
2022/03/26 10:17:20;;;;;;;0.10;0.10;;;13.60;99.90;;;;;;4984126;28;20188;-87
2022/03/26 10:20:13;;;;;;;0.10;0.10;;;13.80;99.90;;;;;;4984224;28;20501;-86
2022/03/26 10:22:48;;;;;;;0.10;0.10;;;13.80;99.90;;;;;;4975951;28;20920;-88
2022/03/26 10:25:23;;;;;;;0.10;0.10;;;13.20;99.90;;;;;;4999188;28;20445;-86
2022/03/26 10:27:57;;;;;;;0.10;0.10;;;13.20;99.90;;;;;;4993113;28;20803;-86
2022/03/26 10:33:30;;;;;;;0.10;0.10;;;14.40;99.90;;;;;;4991067;28;20527;-90
2022/03/26 10:36:00;;;;;;;0.10;0.10;;;15.20;99.90;;;;;;4987153;28;20459;-87
2022/03/26 10:38:40;;;;;;;0.10;0.10;;;15.60;99.90;;;;;;4991692;28;20475;-89
2022/03/26 10:41:07;;;;;;;0.10;0.10;;;15.20;99.90;;;;;;5003303;28;20514;-86
2022/03/26 10:43:33;;;;;;;0.10;0.10;;;15.20;99.90;;;;;;4986108;28;20448;-88
2022/03/26 10:46:01;;;;;;;0.10;0.10;;;14.60;99.90;;;;;;4995883;28;20534;-87
2022/03/26 10:48:32;;;;;;;0.10;0.10;;;14.70;99.90;;;;;;4984806;28;20461;-90
2022/03/26 10:51:02;;;;;;;0.10;0.10;;;16.10;99.90;;;;;;4989157;28;20428;-89
2022/03/26 10:53:34;;;;;;;0.10;0.10;;;17.00;99.90;;;;;;4997185;28;20444;-90
2022/03/26 10:56:10;;;;;;;0.00;0.00;;;16.60;99.90;;;;;;5011128;28;20452;-89
2022/03/26 10:58:38;;;;;;;0.00;0.00;;;16.20;99.90;;;;;;4999772;28;20445;-90
2022/03/26 11:01:10;;;;;;;0.00;0.00;;;16.60;99.90;;;;;;4999795;28;20469;-88
2022/03/26 11:03:37;;;;;;;0.00;0.00;;;17.30;99.90;;;;;;5005053;28;20460;-88
2022/03/26 11:06:15;;;;;;;0.10;0.10;;;17.20;99.90;;;;;;5000651;28;20489;-89
2022/03/26 11:08:49;;;;;;;0.10;0.10;;;16.60;99.90;;;;;;5026103;28;20460;-89
2022/03/26 11:11:15;;;;;;;0.10;0.10;;;16.10;99.90;;;;;;4997602;28;20503;-87
2022/03/26 11:13:51;;;;;;;0.10;0.10;;;16.10;99.90;;;;;;5004876;28;20959;-86
2022/03/26 11:16:39;;;;;;;0.00;0.00;;;16.00;99.90;;;;;;5006215;28;20982;-86
2022/03/26 11:19:34;;;;;;;0.00;0.00;;;15.50;99.90;;;;;;4996127;28;20432;-91
2022/03/26 11:22:22;;;;;;;0.10;0.10;;;16.80;99.90;;;;;;5011177;28;20456;-88
2022/03/26 11:25:00;;;;;;;0.10;0.10;;;15.50;99.90;;;;;;5009712;28;20448;-88
2022/03/26 11:27:34;;;;;;;0.10;0.10;;;15.80;99.90;;;;;;4999348;28;20491;-88
2022/03/26 11:30:32;;;;;;;0.10;0.10;;;16.20;99.90;;;;;;4997937;28;20438;-94
2022/03/26 11:33:14;;;;;;;0.10;0.10;;;16.80;99.90;;;;;;4986904;28;20460;-92
2022/03/26 11:35:57;;;;;;;0.10;0.10;;;18.10;99.90;;;;;;4994973;28;20456;-88
2022/03/26 11:38:28;;;;;;;0.00;0.00;;;17.20;99.90;;;;;;4998264;28;20538;-88
2022/03/26 11:41:01;;;;;;;0.00;0.00;;;16.50;99.90;;;;;;4990624;28;20518;-89
2022/03/26 11:43:43;;;;;;;0.00;0.00;;;17.50;99.90;;;;;;4999180;28;21007;-90
2022/03/26 11:51:58;;;;;;;0.10;0.00;;;19.20;99.90;;;;;;5004597;28;20549;-88
2022/03/26 11:54:24;;;;;;;0.10;0.10;;;19.60;99.90;;;;;;5001391;28;20440;-89
2022/03/26 11:57:21;;;;;;;0.00;0.00;;;17.40;99.90;;;;;;4980681;28;20463;-88
2022/03/26 11:59:50;;;;;;;0.10;0.10;;;16.70;99.90;;;;;;4985872;28;20451;-87
2022/03/26 12:02:17;;;;;;;0.00;0.00;;;16.20;99.90;;;;;;5015581;28;20494;-88
2022/03/26 12:04:57;;;;;;;0.00;0.00;;;17.20;99.90;;;;;;5003708;28;20480;-86
2022/03/26 12:07:28;;;;;;;0.10;0.00;;;17.00;99.90;;;;;;4992164;28;20491;-87
2022/03/26 12:10:12;;;;;;;0.10;0.00;;;16.90;99.90;;;;;;4996320;28;20445;-89
2022/03/26 12:12:47;;;;;;;0.00;0.00;;;16.90;99.90;;;;;;5007904;28;20455;-92
2022/03/26 12:15:16;;;;;;;0.07;0.00;;;17.60;99.90;;;;;;4999486;28;20442;-90
2022/03/26 12:17:50;;;;;;;0.00;0.00;;;18.50;99.90;;;;;;4997993;28;20451;-90
2022/03/26 12:20:32;;;;;;;0.00;0.00;;;18.00;99.90;;;;;;4996542;28;20451;-90
2022/03/26 12:23:06;;;;;;;0.00;0.00;;;18.50;99.90;;;;;;4999365;28;20432;-89
2022/03/26 12:25:34;;;;;;;0.00;0.00;;;19.70;99.90;;;;;;5006810;28;21045;-89
2022/03/26 12:28:01;;;;;;;0.00;0.00;;;20.70;99.90;;;;;;5003316;28;20447;-89
2022/03/26 12:30:28;;;;;;;0.00;0.00;;;20.60;99.90;;;;;;4997608;28;20946;-89
2022/03/26 12:32:58;;;;;;;0.00;0.00;;;20.30;99.90;;;;;;4987377;28;20464;-89
2022/03/26 12:35:26;;;;;;;0.00;0.00;;;19.40;99.90;;;;;;4993776;28;20470;-88
2022/03/26 12:37:53;;;;;;;0.00;0.00;;;19.50;99.90;;;;;;4987003;28;20495;-92
2022/03/26 12:40:24;;;;;;;0.00;0.00;;;18.80;99.90;;;;;;5005928;28;20474;-90
2022/03/26 12:42:56;;;;;;;0.00;0.00;;;17.90;99.90;;;;;;5003335;28;20464;-92
2022/03/26 12:45:25;;;;;;;0.10;0.10;;;19.80;99.90;;;;;;5006913;28;20482;-93
2022/03/26 12:47:54;;;;;;;0.00;0.00;;;21.00;99.90;;;;;;4991315;28;20460;-90
2022/03/26 12:50:24;;;;;;;0.00;0.00;;;21.90;99.90;;;;;;4997771;28;20448;-91
2022/03/26 12:52:51;;;;;;;0.00;0.00;;;22.60;99.90;;;;;;4999014;28;20923;-89
2022/03/26 12:55:22;;;;;;;0.00;0.00;;;23.10;99.90;;;;;;5000510;28;20444;-93
2022/03/26 13:00:33;;;;;;;0.10;0.10;;;22.60;99.80;;;;;;4994706;28;20477;-88
2022/03/26 13:03:10;;;;;;;0.00;0.00;;;22.90;99.50;;;;;;5017015;28;20427;-91
2022/03/26 13:05:38;;;;;;;0.00;0.00;;;22.20;99.60;;;;;;4998717;28;20491;-93